sensor_id;sensor_type;location;lat;lon;timestamp;temperature;humidity
40964;DHT22;26693;51.168;4.138;2022-12-18T00:00:41;-1.90;99.90
40964;DHT22;26693;51.168;4.138;2022-12-18T00:01:42;-2.00;99.90
40964;DHT22;26693;51.168;4.138;2022-12-18T00:02:42;-2.00;99.90
40964;DHT22;26693;51.168;4.138;2022-12-18T00:03:43;-2.10;99.90
40964;DHT22;26693;51.168;4.138;2022-12-18T00:04:44;-2.10;99.90
40964;DHT22;26693;51.168;4.138;2022-12-18T00:05:49;-2.20;99.90
40964;DHT22;26693;51.168;4.138;2022-12-18T00:06:49;-2.10;99.90
40964;DHT22;26693;51.168;4.138;2022-12-18T00:07:50;-2.00;99.90
40964;DHT22;26693;51.168;4.138;2022-12-18T00:08:50;-2.00;99.90
40964;DHT22;26693;51.168;4.138;2022-12-18T00:09:51;-2.00;99.90
40964;DHT22;26693;51.168;4.138;2022-12-18T00:10:51;-2.00;99.90
40964;DHT22;26693;51.168;4.138;2022-12-18T00:11:52;-2.00;99.90
40964;DHT22;26693;51.168;4.138;2022-12-18T00:12:52;-2.00;99.90
40964;DHT22;26693;51.168;4.138;2022-12-18T00:13:54;-2.10;99.90
40964;DHT22;26693;51.168;4.138;2022-12-18T00:14:55;-2.10;99.90
40964;DHT22;26693;51.168;4.138;2022-12-18T00:15:55;-2.10;99.90
40964;DHT22;26693;51.168;4.138;2022-12-18T00:17:01;-2.10;99.90
40964;DHT22;26693;51.168;4.138;2022-12-18T00:18:01;-2.20;99.90
40964;DHT22;26693;51.168;4.138;2022-12-18T00:19:02;-2.20;99.90
40964;DHT22;26693;51.168;4.138;2022-12-18T00:20:03;-2.20;99.90
40964;DHT22;26693;51.168;4.138;2022-12-18T00:21:05;-2.20;99.90
40964;DHT22;26693;51.168;4.138;2022-12-18T00:22:06;-2.20;99.90
40964;DHT22;26693;51.168;4.138;2022-12-18T00:23:06;-2.20;99.90
40964;DHT22;26693;51.168;4.138;2022-12-18T00:24:07;-2.20;99.90
40964;DHT22;26693;51.168;4.138;2022-12-18T00:25:08;-2.20;99.90
40964;DHT22;26693;51.168;4.138;2022-12-18T00:27:28;-2.20;99.90
40964;DHT22;26693;51.168;4.138;2022-12-18T00:28:28;-2.20;99.90
40964;DHT22;26693;51.168;4.138;2022-12-18T00:29:29;-2.10;99.90
40964;DHT22;26693;51.168;4.138;2022-12-18T00:30:29;-2.10;99.90
40964;DHT22;26693;51.168;4.138;2022-12-18T00:31:30;-2.10;99.90
40964;DHT22;26693;51.168;4.138;2022-12-18T00:32:32;-2.10;99.90
40964;DHT22;26693;51.168;4.138;2022-12-18T00:33:32;-2.20;99.90
40964;DHT22;26693;51.168;4.138;2022-12-18T00:34:33;-2.20;99.90
40964;DHT22;26693;51.168;4.138;2022-12-18T00:35:34;-2.20;99.90
40964;DHT22;26693;51.168;4.138;2022-12-18T00:36:34;-2.30;99.90
40964;DHT22;26693;51.168;4.138;2022-12-18T00:37:35;-2.20;99.90
40964;DHT22;26693;51.168;4.138;2022-12-18T00:38:36;-2.30;99.90
40964;DHT22;26693;51.168;4.138;2022-12-18T00:39:37;-2.30;99.90
40964;DHT22;26693;51.168;4.138;2022-12-18T00:40:37;-2.30;99.90
40964;DHT22;26693;51.168;4.138;2022-12-18T00:41:38;-2.30;99.90
40964;DHT22;26693;51.168;4.138;2022-12-18T00:42:57;-2.30;99.90
40964;DHT22;26693;51.168;4.138;2022-12-18T00:43:57;-2.30;99.90
40964;DHT22;26693;51.168;4.138;2022-12-18T00:44:58;-2.30;99.90
40964;DHT22;26693;51.168;4.138;2022-12-18T00:45:58;-2.30;99.90
40964;DHT22;26693;51.168;4.138;2022-12-18T00:46:59;-2.30;99.90
40964;DHT22;26693;51.168;4.138;2022-12-18T00:47:59;-2.40;99.90
40964;DHT22;26693;51.168;4.138;2022-12-18T00:49:00;-2.30;99.90
40964;DHT22;26693;51.168;4.138;2022-12-18T00:50:00;-2.30;99.90
40964;DHT22;26693;51.168;4.138;2022-12-18T00:51:01;-2.30;99.90
40964;DHT22;26693;51.168;4.138;2022-12-18T00:52:01;-2.40;99.90
40964;DHT22;26693;51.168;4.138;2022-12-18T00:53:02;-2.40;99.90
40964;DHT22;26693;51.168;4.138;2022-12-18T00:54:03;-2.40;99.90
40964;DHT22;26693;51.168;4.138;2022-12-18T00:55:03;-2.40;99.90
40964;DHT22;26693;51.168;4.138;2022-12-18T00:56:04;-2.40;99.90
40964;DHT22;26693;51.168;4.138;2022-12-18T00:57:05;-2.40;99.90
40964;DHT22;26693;51.168;4.138;2022-12-18T00:58:05;-2.30;99.90
40964;DHT22;26693;51.168;4.138;2022-12-18T00:59:06;-2.40;99.90
40964;DHT22;26693;51.168;4.138;2022-12-18T01:00:07;-2.30;99.90
40964;DHT22;26693;51.168;4.138;2022-12-18T01:01:08;-2.30;99.90
40964;DHT22;26693;51.168;4.138;2022-12-18T01:02:08;-2.30;99.90
40964;DHT22;26693;51.168;4.138;2022-12-18T01:03:10;-2.30;99.90
40964;DHT22;26693;51.168;4.138;2022-12-18T01:04:12;-2.40;99.90
40964;DHT22;26693;51.168;4.138;2022-12-18T01:05:13;-2.30;99.90
40964;DHT22;26693;51.168;4.138;2022-12-18T01:06:14;-2.30;99.90
40964;DHT22;26693;51.168;4.138;2022-12-18T01:07:15;-2.20;99.90
40964;DHT22;26693;51.168;4.138;2022-12-18T01:08:15;-2.20;99.90
40964;DHT22;26693;51.168;4.138;2022-12-18T01:09:16;-2.20;99.90
40964;DHT22;26693;51.168;4.138;2022-12-18T01:10:17;-2.20;99.90
40964;DHT22;26693;51.168;4.138;2022-12-18T01:11:18;-2.10;99.90
40964;DHT22;26693;51.168;4.138;2022-12-18T01:12:19;-2.20;99.90
40964;DHT22;26693;51.168;4.138;2022-12-18T01:13:19;-2.30;99.90
40964;DHT22;26693;51.168;4.138;2022-12-18T01:14:20;-2.30;99.90
40964;DHT22;26693;51.168;4.138;2022-12-18T01:15:20;-2.30;99.90
40964;DHT22;26693;51.168;4.138;2022-12-18T01:16:21;-2.30;99.90
40964;DHT22;26693;51.168;4.138;2022-12-18T01:17:22;-2.20;99.90
40964;DHT22;26693;51.168;4.138;2022-12-18T01:18:22;-2.30;99.90
40964;DHT22;26693;51.168;4.138;2022-12-18T01:19:23;-2.30;99.90
40964;DHT22;26693;51.168;4.138;2022-12-18T01:20:24;-2.20;99.90
40964;DHT22;26693;51.168;4.138;2022-12-18T01:21:24;-2.20;99.90
40964;DHT22;26693;51.168;4.138;2022-12-18T01:22:25;-2.20;99.90
40964;DHT22;26693;51.168;4.138;2022-12-18T01:23:25;-2.20;99.90
40964;DHT22;26693;51.168;4.138;2022-12-18T01:24:26;-2.10;99.90
40964;DHT22;26693;51.168;4.138;2022-12-18T01:25:26;-2.20;99.90
40964;DHT22;26693;51.168;4.138;2022-12-18T01:26:27;-2.10;99.90
40964;DHT22;26693;51.168;4.138;2022-12-18T01:27:29;-2.10;99.90
40964;DHT22;26693;51.168;4.138;2022-12-18T01:28:30;-2.20;99.90
40964;DHT22;26693;51.168;4.138;2022-12-18T01:29:30;-2.30;99.90
40964;DHT22;26693;51.168;4.138;2022-12-18T01:30:31;-2.30;99.90
40964;DHT22;26693;51.168;4.138;2022-12-18T01:31:32;-2.20;99.90
40964;DHT22;26693;51.168;4.138;2022-12-18T01:32:33;-2.30;99.90
40964;DHT22;26693;51.168;4.138;2022-12-18T01:33:33;-2.30;99.90
40964;DHT22;26693;51.168;4.138;2022-12-18T01:34:37;-2.40;99.90
40964;DHT22;26693;51.168;4.138;2022-12-18T01:35:41;-2.30;99.90
40964;DHT22;26693;51.168;4.138;2022-12-18T01:36:42;-2.40;99.90
40964;DHT22;26693;51.168;4.138;2022-12-18T01:37:42;-2.40;99.90
40964;DHT22;26693;51.168;4.138;2022-12-18T01:38:44;-2.30;99.90
40964;DHT22;26693;51.168;4.138;2022-12-18T01:39:44;-2.40;99.90
40964;DHT22;26693;51.168;4.138;2022-12-18T01:40:45;-2.40;99.90
40964;DHT22;26693;51.168;4.138;2022-12-18T01:41:46;-2.40;99.90
40964;DHT22;26693;51.168;4.138;2022-12-18T01:43:01;-2.40;99.90
40964;DHT22;26693;51.168;4.138;2022-12-18T01:44:46;-2.40;99.90
40964;DHT22;26693;51.168;4.138;2022-12-18T01:45:29;-2.40;99.90
40964;DHT22;26693;51.168;4.138;2022-12-18T01:46:30;-2.50;99.90
40964;DHT22;26693;51.168;4.138;2022-12-18T01:47:32;-2.50;99.90
40964;DHT22;26693;51.168;4.138;2022-12-18T01:48:33;-2.50;99.90
40964;DHT22;26693;51.168;4.138;2022-12-18T01:49:34;-2.50;99.90
40964;DHT22;26693;51.168;4.138;2022-12-18T01:50:38;-2.40;99.90
40964;DHT22;26693;51.168;4.138;2022-12-18T01:51:40;-2.40;99.90
40964;DHT22;26693;51.168;4.138;2022-12-18T01:52:52;-2.40;99.90
40964;DHT22;26693;51.168;4.138;2022-12-18T01:53:53;-2.30;99.90
40964;DHT22;26693;51.168;4.138;2022-12-18T01:54:53;-2.40;99.90
40964;DHT22;26693;51.168;4.138;2022-12-18T01:55:55;-2.30;99.90
40964;DHT22;26693;51.168;4.138;2022-12-18T01:56:56;-2.30;99.90
40964;DHT22;26693;51.168;4.138;2022-12-18T01:57:57;-2.20;99.90
40964;DHT22;26693;51.168;4.138;2022-12-18T01:59:02;-2.30;99.90
40964;DHT22;26693;51.168;4.138;2022-12-18T02:00:05;-2.30;99.90
40964;DHT22;26693;51.168;4.138;2022-12-18T02:01:06;-2.30;99.90
40964;DHT22;26693;51.168;4.138;2022-12-18T02:02:07;-2.30;99.90
40964;DHT22;26693;51.168;4.138;2022-12-18T02:03:07;-2.30;99.90
40964;DHT22;26693;51.168;4.138;2022-12-18T02:04:24;-2.30;99.90
40964;DHT22;26693;51.168;4.138;2022-12-18T02:06:36;-2.20;99.90
40964;DHT22;26693;51.168;4.138;2022-12-18T02:07:58;-2.10;99.90
40964;DHT22;26693;51.168;4.138;2022-12-18T02:09:04;-2.00;99.90
40964;DHT22;26693;51.168;4.138;2022-12-18T02:10:23;-2.00;99.90
40964;DHT22;26693;51.168;4.138;2022-12-18T02:16:53;-2.20;99.90
40964;DHT22;26693;51.168;4.138;2022-12-18T02:17:57;-2.30;99.90
40964;DHT22;26693;51.168;4.138;2022-12-18T02:18:59;-2.30;99.90
40964;DHT22;26693;51.168;4.138;2022-12-18T02:20:13;-2.40;99.90
40964;DHT22;26693;51.168;4.138;2022-12-18T02:21:35;-2.50;99.90
40964;DHT22;26693;51.168;4.138;2022-12-18T02:23:01;-2.40;99.90
40964;DHT22;26693;51.168;4.138;2022-12-18T02:24:11;-2.50;99.90
40964;DHT22;26693;51.168;4.138;2022-12-18T02:27:27;-2.50;99.90
40964;DHT22;26693;51.168;4.138;2022-12-18T02:28:30;-2.50;99.90
40964;DHT22;26693;51.168;4.138;2022-12-18T02:29:45;-2.50;99.90
40964;DHT22;26693;51.168;4.138;2022-12-18T02:30:47;-2.50;99.90
40964;DHT22;26693;51.168;4.138;2022-12-18T02:31:53;-2.60;99.90
40964;DHT22;26693;51.168;4.138;2022-12-18T02:32:54;-2.60;99.90
40964;DHT22;26693;51.168;4.138;2022-12-18T02:33:56;-2.60;99.90
40964;DHT22;26693;51.168;4.138;2022-12-18T02:34:58;-2.60;99.90
40964;DHT22;26693;51.168;4.138;2022-12-18T02:35:59;-2.50;99.90
40964;DHT22;26693;51.168;4.138;2022-12-18T02:37:00;-2.50;99.90
40964;DHT22;26693;51.168;4.138;2022-12-18T02:38:02;-2.60;99.90
40964;DHT22;26693;51.168;4.138;2022-12-18T02:39:04;-2.60;99.90
40964;DHT22;26693;51.168;4.138;2022-12-18T02:40:06;-2.50;99.90
40964;DHT22;26693;51.168;4.138;2022-12-18T02:41:08;-2.50;99.90
40964;DHT22;26693;51.168;4.138;2022-12-18T02:42:08;-2.60;99.90
40964;DHT22;26693;51.168;4.138;2022-12-18T02:43:11;-2.60;99.90
40964;DHT22;26693;51.168;4.138;2022-12-18T02:44:12;-2.60;99.90
40964;DHT22;26693;51.168;4.138;2022-12-18T02:45:13;-2.60;99.90
40964;DHT22;26693;51.168;4.138;2022-12-18T02:46:25;-2.60;99.90
40964;DHT22;26693;51.168;4.138;2022-12-18T02:47:28;-2.60;99.90
40964;DHT22;26693;51.168;4.138;2022-12-18T02:48:31;-2.60;99.90
40964;DHT22;26693;51.168;4.138;2022-12-18T02:50:38;-2.80;99.90
40964;DHT22;26693;51.168;4.138;2022-12-18T02:51:47;-2.80;99.90
40964;DHT22;26693;51.168;4.138;2022-12-18T02:53:56;-2.70;99.90
40964;DHT22;26693;51.168;4.138;2022-12-18T02:57:05;-2.70;99.90
40964;DHT22;26693;51.168;4.138;2022-12-18T02:59:38;-2.70;99.90
40964;DHT22;26693;51.168;4.138;2022-12-18T03:00:41;-2.70;99.90
40964;DHT22;26693;51.168;4.138;2022-12-18T03:01:57;-2.80;99.90
40964;DHT22;26693;51.168;4.138;2022-12-18T03:04:16;-2.70;99.90
40964;DHT22;26693;51.168;4.138;2022-12-18T03:05:22;-2.70;99.90
40964;DHT22;26693;51.168;4.138;2022-12-18T03:06:58;-2.80;99.90
40964;DHT22;26693;51.168;4.138;2022-12-18T03:07:52;-2.80;99.90
40964;DHT22;26693;51.168;4.138;2022-12-18T03:08:59;-2.70;99.90
40964;DHT22;26693;51.168;4.138;2022-12-18T03:10:01;-2.80;99.90
40964;DHT22;26693;51.168;4.138;2022-12-18T03:11:03;-2.70;99.90
40964;DHT22;26693;51.168;4.138;2022-12-18T03:12:06;-2.70;99.90
40964;DHT22;26693;51.168;4.138;2022-12-18T03:13:26;-2.80;99.90
40964;DHT22;26693;51.168;4.138;2022-12-18T03:14:28;-2.70;99.90
40964;DHT22;26693;51.168;4.138;2022-12-18T03:15:30;-2.70;99.90
40964;DHT22;26693;51.168;4.138;2022-12-18T03:16:32;-2.80;99.90
40964;DHT22;26693;51.168;4.138;2022-12-18T03:17:34;-2.80;99.90
40964;DHT22;26693;51.168;4.138;2022-12-18T03:18:38;-2.70;99.90
40964;DHT22;26693;51.168;4.138;2022-12-18T03:19:40;-2.70;99.90
40964;DHT22;26693;51.168;4.138;2022-12-18T03:20:43;-2.70;99.90
40964;DHT22;26693;51.168;4.138;2022-12-18T03:21:51;-2.70;99.90
40964;DHT22;26693;51.168;4.138;2022-12-18T03:22:54;-2.60;99.90
40964;DHT22;26693;51.168;4.138;2022-12-18T03:23:57;-2.60;99.90
40964;DHT22;26693;51.168;4.138;2022-12-18T03:24:58;-2.60;99.90
40964;DHT22;26693;51.168;4.138;2022-12-18T03:26:01;-2.50;99.90
40964;DHT22;26693;51.168;4.138;2022-12-18T03:27:04;-2.50;99.90
40964;DHT22;26693;51.168;4.138;2022-12-18T03:28:06;-2.50;99.90
40964;DHT22;26693;51.168;4.138;2022-12-18T03:29:12;-2.60;99.90
40964;DHT22;26693;51.168;4.138;2022-12-18T03:30:15;-2.60;99.90
40964;DHT22;26693;51.168;4.138;2022-12-18T03:31:16;-2.60;99.90
40964;DHT22;26693;51.168;4.138;2022-12-18T03:32:28;-2.60;99.90
40964;DHT22;26693;51.168;4.138;2022-12-18T03:34:04;-2.60;99.90
40964;DHT22;26693;51.168;4.138;2022-12-18T03:34:58;-2.60;99.90
40964;DHT22;26693;51.168;4.138;2022-12-18T03:36:01;-2.50;99.90
40964;DHT22;26693;51.168;4.138;2022-12-18T03:37:01;-2.50;99.90
40964;DHT22;26693;51.168;4.138;2022-12-18T03:38:02;-2.50;99.90
40964;DHT22;26693;51.168;4.138;2022-12-18T03:39:03;-2.60;99.90
40964;DHT22;26693;51.168;4.138;2022-12-18T03:40:03;-2.60;99.90
40964;DHT22;26693;51.168;4.138;2022-12-18T03:42:23;-2.50;99.90
40964;DHT22;26693;51.168;4.138;2022-12-18T03:44:51;-2.50;99.90
40964;DHT22;26693;51.168;4.138;2022-12-18T03:46:08;-2.40;99.90
40964;DHT22;26693;51.168;4.138;2022-12-18T03:49:12;-2.40;99.90
40964;DHT22;26693;51.168;4.138;2022-12-18T03:50:16;-2.40;99.90
40964;DHT22;26693;51.168;4.138;2022-12-18T03:51:22;-2.40;99.90
40964;DHT22;26693;51.168;4.138;2022-12-18T03:52:29;-2.30;99.90
40964;DHT22;26693;51.168;4.138;2022-12-18T03:53:41;-2.30;99.90
40964;DHT22;26693;51.168;4.138;2022-12-18T03:54:42;-2.20;99.90
40964;DHT22;26693;51.168;4.138;2022-12-18T03:55:43;-2.10;99.90
40964;DHT22;26693;51.168;4.138;2022-12-18T03:56:46;-2.20;99.90
40964;DHT22;26693;51.168;4.138;2022-12-18T03:57:48;-2.20;99.90
40964;DHT22;26693;51.168;4.138;2022-12-18T03:58:49;-2.30;99.90
40964;DHT22;26693;51.168;4.138;2022-12-18T03:59:52;-2.30;99.90
40964;DHT22;26693;51.168;4.138;2022-12-18T04:00:55;-2.30;99.90
40964;DHT22;26693;51.168;4.138;2022-12-18T04:01:56;-2.30;99.90
40964;DHT22;26693;51.168;4.138;2022-12-18T04:02:58;-2.40;99.90
40964;DHT22;26693;51.168;4.138;2022-12-18T04:04:00;-2.40;99.90
40964;DHT22;26693;51.168;4.138;2022-12-18T04:05:02;-2.40;99.90
40964;DHT22;26693;51.168;4.138;2022-12-18T04:06:05;-2.40;99.90
40964;DHT22;26693;51.168;4.138;2022-12-18T04:07:06;-2.40;99.90
40964;DHT22;26693;51.168;4.138;2022-12-18T04:08:06;-2.50;99.90
40964;DHT22;26693;51.168;4.138;2022-12-18T04:09:07;-2.50;99.90
40964;DHT22;26693;51.168;4.138;2022-12-18T04:10:09;-2.40;99.90
40964;DHT22;26693;51.168;4.138;2022-12-18T04:11:10;-2.40;99.90
40964;DHT22;26693;51.168;4.138;2022-12-18T04:12:11;-2.40;99.90
40964;DHT22;26693;51.168;4.138;2022-12-18T04:13:11;-2.40;99.90
40964;DHT22;26693;51.168;4.138;2022-12-18T04:14:12;-2.30;99.90
40964;DHT22;26693;51.168;4.138;2022-12-18T04:15:13;-2.30;99.90
40964;DHT22;26693;51.168;4.138;2022-12-18T04:16:13;-2.30;99.90
40964;DHT22;26693;51.168;4.138;2022-12-18T04:17:14;-2.20;99.90
40964;DHT22;26693;51.168;4.138;2022-12-18T04:18:14;-2.20;99.90
40964;DHT22;26693;51.168;4.138;2022-12-18T04:19:15;-2.20;99.90
40964;DHT22;26693;51.168;4.138;2022-12-18T04:20:16;-2.30;99.90
40964;DHT22;26693;51.168;4.138;2022-12-18T04:21:16;-2.30;99.90
40964;DHT22;26693;51.168;4.138;2022-12-18T04:22:17;-2.30;99.90
40964;DHT22;26693;51.168;4.138;2022-12-18T04:23:18;-2.40;99.90
40964;DHT22;26693;51.168;4.138;2022-12-18T04:24:18;-2.50;99.90
40964;DHT22;26693;51.168;4.138;2022-12-18T04:25:19;-2.40;99.90
40964;DHT22;26693;51.168;4.138;2022-12-18T04:26:19;-2.40;99.90
40964;DHT22;26693;51.168;4.138;2022-12-18T04:27:20;-2.40;99.90
40964;DHT22;26693;51.168;4.138;2022-12-18T04:28:21;-2.50;99.90
40964;DHT22;26693;51.168;4.138;2022-12-18T04:29:21;-2.50;99.90
40964;DHT22;26693;51.168;4.138;2022-12-18T04:30:22;-2.60;99.90
40964;DHT22;26693;51.168;4.138;2022-12-18T04:31:23;-2.60;99.90
40964;DHT22;26693;51.168;4.138;2022-12-18T04:32:23;-2.60;99.90
40964;DHT22;26693;51.168;4.138;2022-12-18T04:33:24;-2.60;99.90
40964;DHT22;26693;51.168;4.138;2022-12-18T04:34:24;-2.60;99.90
40964;DHT22;26693;51.168;4.138;2022-12-18T04:35:25;-2.60;99.90
40964;DHT22;26693;51.168;4.138;2022-12-18T04:36:25;-2.50;99.90
40964;DHT22;26693;51.168;4.138;2022-12-18T04:37:26;-2.40;99.90
40964;DHT22;26693;51.168;4.138;2022-12-18T04:38:26;-2.40;99.90
40964;DHT22;26693;51.168;4.138;2022-12-18T04:39:27;-2.30;99.90
40964;DHT22;26693;51.168;4.138;2022-12-18T04:40:27;-2.40;99.90
40964;DHT22;26693;51.168;4.138;2022-12-18T04:41:28;-2.50;99.90
40964;DHT22;26693;51.168;4.138;2022-12-18T04:42:28;-2.50;99.90
40964;DHT22;26693;51.168;4.138;2022-12-18T04:43:29;-2.40;99.90
40964;DHT22;26693;51.168;4.138;2022-12-18T04:44:30;-2.40;99.90
40964;DHT22;26693;51.168;4.138;2022-12-18T04:45:31;-2.40;99.90
40964;DHT22;26693;51.168;4.138;2022-12-18T04:46:31;-2.40;99.90
40964;DHT22;26693;51.168;4.138;2022-12-18T04:47:32;-2.30;99.90
40964;DHT22;26693;51.168;4.138;2022-12-18T04:48:32;-2.30;99.90
40964;DHT22;26693;51.168;4.138;2022-12-18T04:49:33;-2.30;99.90
40964;DHT22;26693;51.168;4.138;2022-12-18T04:50:34;-2.30;99.90
40964;DHT22;26693;51.168;4.138;2022-12-18T04:51:34;-2.30;99.90
40964;DHT22;26693;51.168;4.138;2022-12-18T04:52:35;-2.40;99.90
40964;DHT22;26693;51.168;4.138;2022-12-18T04:53:35;-2.30;99.90
40964;DHT22;26693;51.168;4.138;2022-12-18T04:54:36;-2.40;99.90
40964;DHT22;26693;51.168;4.138;2022-12-18T04:55:36;-2.30;99.90
40964;DHT22;26693;51.168;4.138;2022-12-18T04:56:37;-2.20;99.90
40964;DHT22;26693;51.168;4.138;2022-12-18T04:57:37;-2.10;99.90
40964;DHT22;26693;51.168;4.138;2022-12-18T04:58:39;-2.20;99.90
40964;DHT22;26693;51.168;4.138;2022-12-18T04:59:40;-2.10;99.90
40964;DHT22;26693;51.168;4.138;2022-12-18T05:00:40;-2.10;99.90
40964;DHT22;26693;51.168;4.138;2022-12-18T05:01:41;-2.10;99.90
40964;DHT22;26693;51.168;4.138;2022-12-18T05:02:41;-2.10;99.90
40964;DHT22;26693;51.168;4.138;2022-12-18T05:03:42;-2.20;99.90
40964;DHT22;26693;51.168;4.138;2022-12-18T05:04:42;-2.30;99.90
40964;DHT22;26693;51.168;4.138;2022-12-18T05:05:43;-2.30;99.90
40964;DHT22;26693;51.168;4.138;2022-12-18T05:06:43;-2.20;99.90
40964;DHT22;26693;51.168;4.138;2022-12-18T05:07:44;-2.40;99.90
40964;DHT22;26693;51.168;4.138;2022-12-18T05:08:44;-2.30;99.90
40964;DHT22;26693;51.168;4.138;2022-12-18T05:09:45;-2.40;99.90
40964;DHT22;26693;51.168;4.138;2022-12-18T05:10:45;-2.40;99.90
40964;DHT22;26693;51.168;4.138;2022-12-18T05:11:46;-2.50;99.90
40964;DHT22;26693;51.168;4.138;2022-12-18T05:12:47;-2.60;99.90
40964;DHT22;26693;51.168;4.138;2022-12-18T05:13:59;-2.60;99.90
40964;DHT22;26693;51.168;4.138;2022-12-18T05:15:00;-2.50;99.90
40964;DHT22;26693;51.168;4.138;2022-12-18T05:16:00;-2.50;99.90
40964;DHT22;26693;51.168;4.138;2022-12-18T05:17:01;-2.50;99.90
40964;DHT22;26693;51.168;4.138;2022-12-18T05:18:03;-2.60;99.90
40964;DHT22;26693;51.168;4.138;2022-12-18T05:19:04;-2.60;99.90
40964;DHT22;26693;51.168;4.138;2022-12-18T05:20:04;-2.70;99.90
40964;DHT22;26693;51.168;4.138;2022-12-18T05:21:05;-2.70;99.90
40964;DHT22;26693;51.168;4.138;2022-12-18T05:22:05;-2.70;99.90
40964;DHT22;26693;51.168;4.138;2022-12-18T05:23:06;-2.60;99.90
40964;DHT22;26693;51.168;4.138;2022-12-18T05:24:06;-2.60;99.90
40964;DHT22;26693;51.168;4.138;2022-12-18T05:25:07;-2.60;99.90
40964;DHT22;26693;51.168;4.138;2022-12-18T05:26:08;-2.60;99.90
40964;DHT22;26693;51.168;4.138;2022-12-18T05:27:09;-2.60;99.90
40964;DHT22;26693;51.168;4.138;2022-12-18T05:28:09;-2.60;99.90
40964;DHT22;26693;51.168;4.138;2022-12-18T05:29:10;-2.60;99.90
40964;DHT22;26693;51.168;4.138;2022-12-18T05:30:12;-2.60;99.90
40964;DHT22;26693;51.168;4.138;2022-12-18T05:31:13;-2.50;99.90
40964;DHT22;26693;51.168;4.138;2022-12-18T05:32:14;-2.50;99.90
40964;DHT22;26693;51.168;4.138;2022-12-18T05:33:14;-2.50;99.90
40964;DHT22;26693;51.168;4.138;2022-12-18T05:34:15;-2.40;99.90
40964;DHT22;26693;51.168;4.138;2022-12-18T05:35:15;-2.50;99.90
40964;DHT22;26693;51.168;4.138;2022-12-18T05:36:16;-2.60;99.90
40964;DHT22;26693;51.168;4.138;2022-12-18T05:37:16;-2.60;99.90
40964;DHT22;26693;51.168;4.138;2022-12-18T05:38:18;-2.70;99.90
40964;DHT22;26693;51.168;4.138;2022-12-18T05:39:18;-2.60;99.90
40964;DHT22;26693;51.168;4.138;2022-12-18T05:40:19;-2.60;99.90
40964;DHT22;26693;51.168;4.138;2022-12-18T05:41:19;-2.50;99.90
40964;DHT22;26693;51.168;4.138;2022-12-18T05:42:20;-2.50;99.90
40964;DHT22;26693;51.168;4.138;2022-12-18T05:43:21;-2.60;99.90
40964;DHT22;26693;51.168;4.138;2022-12-18T05:44:22;-2.60;99.90
40964;DHT22;26693;51.168;4.138;2022-12-18T05:45:22;-2.60;99.90
40964;DHT22;26693;51.168;4.138;2022-12-18T05:46:23;-2.60;99.90
40964;DHT22;26693;51.168;4.138;2022-12-18T05:47:24;-2.60;99.90
40964;DHT22;26693;51.168;4.138;2022-12-18T05:48:24;-2.50;99.90
40964;DHT22;26693;51.168;4.138;2022-12-18T05:49:25;-2.60;99.90
40964;DHT22;26693;51.168;4.138;2022-12-18T05:50:26;-2.60;99.90
40964;DHT22;26693;51.168;4.138;2022-12-18T05:51:26;-2.50;99.90
40964;DHT22;26693;51.168;4.138;2022-12-18T05:52:27;-2.50;99.90
40964;DHT22;26693;51.168;4.138;2022-12-18T05:53:27;-2.40;99.90
40964;DHT22;26693;51.168;4.138;2022-12-18T05:54:28;-2.40;99.90
40964;DHT22;26693;51.168;4.138;2022-12-18T05:55:28;-2.40;99.90
40964;DHT22;26693;51.168;4.138;2022-12-18T05:56:29;-2.40;99.90
40964;DHT22;26693;51.168;4.138;2022-12-18T05:57:29;-2.30;99.90
40964;DHT22;26693;51.168;4.138;2022-12-18T05:58:30;-2.30;99.90
40964;DHT22;26693;51.168;4.138;2022-12-18T05:59:31;-2.30;99.90
40964;DHT22;26693;51.168;4.138;2022-12-18T06:00:32;-2.30;99.90
40964;DHT22;26693;51.168;4.138;2022-12-18T06:01:33;-2.30;99.90
40964;DHT22;26693;51.168;4.138;2022-12-18T06:02:33;-2.30;99.90
40964;DHT22;26693;51.168;4.138;2022-12-18T06:03:34;-2.30;99.90
40964;DHT22;26693;51.168;4.138;2022-12-18T06:04:34;-2.30;99.90
40964;DHT22;26693;51.168;4.138;2022-12-18T06:05:39;-2.40;99.90
40964;DHT22;26693;51.168;4.138;2022-12-18T06:06:39;-2.40;99.90
40964;DHT22;26693;51.168;4.138;2022-12-18T06:07:40;-2.40;99.90
40964;DHT22;26693;51.168;4.138;2022-12-18T06:08:40;-2.40;99.90
40964;DHT22;26693;51.168;4.138;2022-12-18T06:09:41;-2.40;99.90
40964;DHT22;26693;51.168;4.138;2022-12-18T06:10:42;-2.50;99.90
40964;DHT22;26693;51.168;4.138;2022-12-18T06:11:42;-2.40;99.90
40964;DHT22;26693;51.168;4.138;2022-12-18T06:12:43;-2.40;99.90
40964;DHT22;26693;51.168;4.138;2022-12-18T06:13:43;-2.30;99.90
40964;DHT22;26693;51.168;4.138;2022-12-18T06:14:44;-2.30;99.90
40964;DHT22;26693;51.168;4.138;2022-12-18T06:15:44;-2.20;99.90
40964;DHT22;26693;51.168;4.138;2022-12-18T06:16:45;-2.30;99.90
40964;DHT22;26693;51.168;4.138;2022-12-18T06:17:45;-2.20;99.90
40964;DHT22;26693;51.168;4.138;2022-12-18T06:18:46;-2.30;99.90
40964;DHT22;26693;51.168;4.138;2022-12-18T06:19:46;-2.20;99.90
40964;DHT22;26693;51.168;4.138;2022-12-18T06:20:54;-2.20;99.90
40964;DHT22;26693;51.168;4.138;2022-12-18T06:21:54;-2.30;99.90
40964;DHT22;26693;51.168;4.138;2022-12-18T06:22:55;-2.30;99.90
40964;DHT22;26693;51.168;4.138;2022-12-18T06:23:55;-2.20;99.90
40964;DHT22;26693;51.168;4.138;2022-12-18T06:24:56;-2.30;99.90
40964;DHT22;26693;51.168;4.138;2022-12-18T06:25:56;-2.20;99.90
40964;DHT22;26693;51.168;4.138;2022-12-18T06:26:57;-2.20;99.90
40964;DHT22;26693;51.168;4.138;2022-12-18T06:27:57;-2.20;99.90
40964;DHT22;26693;51.168;4.138;2022-12-18T06:28:58;-2.30;99.90
40964;DHT22;26693;51.168;4.138;2022-12-18T06:29:59;-2.30;99.90
40964;DHT22;26693;51.168;4.138;2022-12-18T06:30:59;-2.40;99.90
40964;DHT22;26693;51.168;4.138;2022-12-18T06:32:00;-2.40;99.90
40964;DHT22;26693;51.168;4.138;2022-12-18T06:33:01;-2.20;99.90
40964;DHT22;26693;51.168;4.138;2022-12-18T06:34:02;-2.40;99.90
40964;DHT22;26693;51.168;4.138;2022-12-18T06:35:03;-2.30;99.90
40964;DHT22;26693;51.168;4.138;2022-12-18T06:36:05;-2.40;99.90
40964;DHT22;26693;51.168;4.138;2022-12-18T06:37:06;-2.40;99.90
40964;DHT22;26693;51.168;4.138;2022-12-18T06:38:07;-2.40;99.90
40964;DHT22;26693;51.168;4.138;2022-12-18T06:39:07;-2.40;99.90
40964;DHT22;26693;51.168;4.138;2022-12-18T06:40:08;-2.40;99.90
40964;DHT22;26693;51.168;4.138;2022-12-18T06:41:09;-2.40;99.90
40964;DHT22;26693;51.168;4.138;2022-12-18T06:42:10;-2.50;99.90
40964;DHT22;26693;51.168;4.138;2022-12-18T06:43:10;-2.60;99.90
40964;DHT22;26693;51.168;4.138;2022-12-18T06:44:11;-2.50;99.90
40964;DHT22;26693;51.168;4.138;2022-12-18T06:45:11;-2.60;99.90
40964;DHT22;26693;51.168;4.138;2022-12-18T06:46:12;-2.70;99.90
40964;DHT22;26693;51.168;4.138;2022-12-18T06:47:13;-2.60;99.90
40964;DHT22;26693;51.168;4.138;2022-12-18T06:48:13;-2.60;99.90
40964;DHT22;26693;51.168;4.138;2022-12-18T06:49:14;-2.60;99.90
40964;DHT22;26693;51.168;4.138;2022-12-18T06:50:16;-2.50;99.90
40964;DHT22;26693;51.168;4.138;2022-12-18T06:51:20;-2.50;99.90
40964;DHT22;26693;51.168;4.138;2022-12-18T06:52:20;-2.50;99.90
40964;DHT22;26693;51.168;4.138;2022-12-18T06:53:21;-2.60;99.90
40964;DHT22;26693;51.168;4.138;2022-12-18T06:54:21;-2.70;99.90